createdAt,value
2018-06-01T00:01:54.960Z,101575.37
2018-06-01T00:04:21.590Z,101575.87
2018-06-01T00:06:48.964Z,101571.21
2018-06-01T00:09:16.554Z,101573.51
2018-06-01T00:11:43.192Z,101562.63
2018-06-01T00:14:10.205Z,101571.06
2018-06-01T00:16:36.839Z,101567.06
2018-06-01T00:19:03.543Z,101567.70
2018-06-01T00:21:30.183Z,101558.29
2018-06-01T00:23:56.852Z,101566.10
2018-06-01T00:26:23.636Z,101558.42
2018-06-01T00:28:50.316Z,101557.22
2018-06-01T00:31:16.961Z,101558.96
2018-06-01T00:33:43.580Z,101553.50
2018-06-01T00:36:10.285Z,101558.27
2018-06-01T00:38:36.960Z,101554.80
2018-06-01T00:41:03.609Z,101546.91
2018-06-01T00:43:30.288Z,101540.23
2018-06-01T00:45:56.948Z,101541.91
2018-06-01T00:48:23.589Z,101543.47
2018-06-01T00:50:50.344Z,101544.41
2018-06-01T00:53:17.022Z,101544.70
2018-06-01T00:55:44.438Z,101536.03
2018-06-01T00:58:11.113Z,101541.48
2018-06-01T01:00:38.530Z,101540.68
2018-06-01T01:03:05.988Z,101540.11
2018-06-01T01:05:32.672Z,101538.16
2018-06-01T01:08:00.122Z,101543.62
2018-06-01T01:10:26.806Z,101544.69
2018-06-01T01:12:53.443Z,101549.23
2018-06-01T01:15:20.184Z,101545.41
2018-06-01T01:17:46.827Z,101540.09
2018-06-01T01:20:13.440Z,101542.50
2018-06-01T01:22:40.869Z,101549.75
2018-06-01T01:25:08.284Z,101543.27
2018-06-01T01:27:35.107Z,101547.94
2018-06-01T01:30:01.777Z,101549.93
2018-06-01T01:32:28.412Z,101541.07
2018-06-01T01:34:55.081Z,101554.47
2018-06-01T01:37:31.843Z,101550.16
2018-06-01T01:39:59.291Z,101547.62
2018-06-01T01:42:25.952Z,101538.50
2018-06-01T01:44:53.517Z,101541.31
2018-06-01T01:47:21.024Z,101544.26
2018-06-01T01:49:52.512Z,101541.14
2018-06-01T01:52:19.353Z,101539.43
2018-06-01T01:54:46.136Z,101546.69
2018-06-01T01:57:13.704Z,101551.38
2018-06-01T01:59:40.492Z,101547.55
2018-06-01T02:02:07.295Z,101548.78
2018-06-01T02:04:34.920Z,101553.41
2018-06-01T02:07:02.551Z,101551.83
2018-06-01T02:09:29.420Z,101547.62
2018-06-01T02:11:56.191Z,101551.79
2018-06-01T02:14:22.960Z,101542.74
2018-06-01T02:16:50.577Z,101545.77
2018-06-01T02:19:18.106Z,101551.80
2018-06-01T02:21:44.934Z,101544.77
2018-06-01T02:24:11.692Z,101541.05
2018-06-01T02:26:38.460Z,101548.52
2018-06-01T02:29:05.345Z,101552.52
2018-06-01T02:31:32.130Z,101542.59
2018-06-01T02:33:58.964Z,101547.22
2018-06-01T02:36:25.752Z,101544.25
2018-06-01T02:38:52.564Z,101552.20
2018-06-01T02:41:19.395Z,101554.09
2018-06-01T02:43:46.233Z,101549.02
2018-06-01T02:46:13.040Z,101560.13
2018-06-01T02:48:40.551Z,101560.91
2018-06-01T02:51:07.307Z,101560.94
2018-06-01T02:53:34.284Z,101572.61
2018-06-01T02:56:01.063Z,101567.52
2018-06-01T02:58:27.875Z,101569.82
2018-06-01T03:00:55.402Z,101571.41
2018-06-01T03:03:22.924Z,101570.66
2018-06-01T03:05:49.801Z,101564.89
2018-06-01T03:08:17.482Z,101569.05
2018-06-01T03:10:45.008Z,101574.22
2018-06-01T03:13:11.795Z,101571.64
2018-06-01T03:15:38.634Z,101569.64
2018-06-01T03:18:05.554Z,101569.28
2018-06-01T03:20:32.322Z,101575.14
2018-06-01T03:22:59.092Z,101586.63
2018-06-01T03:25:25.908Z,101583.94
2018-06-01T03:27:52.676Z,101581.97
2018-06-01T03:30:20.243Z,101583.57
2018-06-01T03:32:47.051Z,101580.52
2018-06-01T03:35:14.550Z,101577.02
2018-06-01T03:37:41.324Z,101581.55
2018-06-01T03:40:08.134Z,101576.41
2018-06-01T03:42:35.699Z,101576.25
2018-06-01T03:45:02.574Z,101573.95
2018-06-01T03:47:29.352Z,101574.77
2018-06-01T03:49:56.424Z,101581.98
2018-06-01T03:52:23.195Z,101566.14
2018-06-01T03:54:50.115Z,101571.64
2018-06-01T03:57:16.929Z,101573.02
2018-06-01T03:59:43.712Z,101566.34
2018-06-01T04:02:10.533Z,101569.69
2018-06-01T04:04:37.548Z,101570.37
2018-06-01T04:07:04.431Z,101570.52
2018-06-01T04:09:31.952Z,101563.39
2018-06-01T04:11:59.604Z,101561.59
2018-06-01T04:14:26.423Z,101567.09
2018-06-01T04:16:53.291Z,101569.23
2018-06-01T04:19:20.159Z,101570.20
2018-06-01T04:21:46.968Z,101569.95
2018-06-01T04:24:13.945Z,101573.23
2018-06-01T04:26:41.476Z,101568.02
2018-06-01T04:29:08.267Z,101566.52
2018-06-01T04:31:35.138Z,101563.70
2018-06-01T04:34:01.922Z,101564.53
2018-06-01T04:36:29.443Z,101569.68
2018-06-01T04:38:56.247Z,101573.06
2018-06-01T04:41:23.344Z,101579.34
2018-06-01T04:43:50.179Z,101585.99
2018-06-01T04:46:16.956Z,101577.01
2018-06-01T04:48:43.763Z,101582.89
2018-06-01T04:51:10.544Z,101574.98
2018-06-01T04:53:37.366Z,101572.69
2018-06-01T04:56:04.286Z,101579.59
2018-06-01T04:58:31.104Z,101574.38
2018-06-01T05:00:57.904Z,101575.08
2018-06-01T05:03:24.663Z,101572.02
2018-06-01T05:05:51.846Z,101578.83
2018-06-01T05:08:18.712Z,101585.16
2018-06-01T05:10:45.508Z,101587.70
2018-06-01T05:13:13.028Z,101580.64
2018-06-01T05:15:39.791Z,101589.44
2018-06-01T05:18:06.612Z,101589.98
2018-06-01T05:20:34.222Z,101589.83
2018-06-01T05:23:01.870Z,101584.70
2018-06-01T05:25:29.403Z,101578.19
2018-06-01T05:27:56.170Z,101583.82
2018-06-01T05:30:22.999Z,101573.21
2018-06-01T05:32:49.868Z,101573.38
2018-06-01T05:37:51.910Z,101577.72
2018-06-01T05:40:18.676Z,101571.16
2018-06-01T05:42:45.508Z,101567.70
2018-06-01T05:45:18.448Z,101570.91
2018-06-01T05:47:45.254Z,101567.31
2018-06-01T05:50:12.089Z,101563.66
2018-06-01T05:52:38.853Z,101564.36
2018-06-01T05:55:06.383Z,101563.83
2018-06-01T05:57:33.264Z,101562.03
2018-06-01T06:00:00.908Z,101567.22
2018-06-01T06:02:27.705Z,101566.18
2018-06-01T06:04:54.511Z,101562.56
2018-06-01T06:07:22.024Z,101564.42
2018-06-01T06:09:49.012Z,101557.00
2018-06-01T06:12:16.516Z,101555.20
2018-06-01T06:14:43.275Z,101555.61
2018-06-01T06:17:10.087Z,101556.78
2018-06-01T06:19:36.856Z,101557.59
2018-06-01T06:22:04.460Z,101556.28
2018-06-01T06:24:32.260Z,101563.55
2018-06-01T06:26:59.040Z,101563.38
2018-06-01T06:29:25.816Z,101562.17
2018-06-01T06:31:53.404Z,101559.34
2018-06-01T06:34:20.288Z,101558.47
2018-06-01T06:36:47.068Z,101555.78
2018-06-01T06:39:14.624Z,101559.02
2018-06-01T06:41:42.131Z,101554.68
2018-06-01T06:44:08.948Z,101559.55
2018-06-01T06:46:35.842Z,101567.05
2018-06-01T06:49:02.661Z,101564.27
2018-06-01T06:51:29.469Z,101564.57
2018-06-01T06:53:57.038Z,101563.08
2018-06-01T06:56:24.054Z,101569.23
2018-06-01T06:58:50.872Z,101564.47
2018-06-01T07:01:17.640Z,101568.16
2018-06-01T07:03:44.456Z,101571.41
2018-06-01T07:06:11.224Z,101573.38
2018-06-01T07:08:38.064Z,101575.00
2018-06-01T07:11:04.891Z,101581.19
2018-06-01T07:13:31.900Z,101581.70
2018-06-01T07:15:58.675Z,101584.71
2018-06-01T07:18:25.458Z,101576.35
2018-06-01T07:20:53.148Z,101581.88
2018-06-01T07:23:19.976Z,101585.72
2018-06-01T07:25:47.484Z,101583.89
2018-06-01T07:28:14.302Z,101584.80
2018-06-01T07:30:41.124Z,101584.12
2018-06-01T07:33:07.912Z,101578.68
2018-06-01T07:35:34.848Z,101575.72
2018-06-01T07:38:01.619Z,101577.82
2018-06-01T07:40:28.488Z,101580.58
2018-06-01T07:42:55.995Z,101579.24
2018-06-01T07:45:29.009Z,101587.96
2018-06-01T07:47:55.847Z,101586.63
2018-06-01T07:50:22.992Z,101577.33
2018-06-01T07:52:49.770Z,101588.26
2018-06-01T07:55:16.540Z,101581.62
2018-06-01T07:57:43.419Z,101583.97
2018-06-01T08:00:10.979Z,101583.11
2018-06-01T08:02:37.987Z,101586.69
2018-06-01T08:05:04.825Z,101579.52
2018-06-01T08:07:32.377Z,101586.70
2018-06-01T08:10:00.092Z,101584.62
2018-06-01T08:12:27.652Z,101586.23
2018-06-01T08:14:54.424Z,101583.68
2018-06-01T08:17:25.296Z,101588.44
2018-06-01T08:19:52.083Z,101592.92
2018-06-01T08:22:19.304Z,101591.03
2018-06-01T08:24:46.124Z,101581.02
2018-06-01T08:27:13.623Z,101580.02
2018-06-01T08:29:40.747Z,101584.84
2018-06-01T08:32:07.751Z,101578.11
2018-06-01T08:34:34.827Z,101580.48
2018-06-01T08:37:01.649Z,101578.28
2018-06-01T08:39:28.447Z,101582.36
2018-06-01T08:41:55.377Z,101585.58
2018-06-01T08:44:22.188Z,101568.67
2018-06-01T08:46:48.957Z,101579.76
2018-06-01T08:49:15.837Z,101585.97
2018-06-01T08:51:42.615Z,101585.45
2018-06-01T08:54:09.563Z,101582.96
2018-06-01T08:56:36.333Z,101576.17
2018-06-01T08:59:03.927Z,101576.41
2018-06-01T09:01:30.885Z,101578.67
2018-06-01T09:03:57.653Z,101575.66
2018-06-01T09:06:24.446Z,101575.56
2018-06-01T09:08:51.283Z,101575.63
2018-06-01T09:11:18.093Z,101579.47
2018-06-01T09:13:44.911Z,101580.30
2018-06-01T09:16:11.727Z,101578.00
2018-06-01T09:18:38.560Z,101583.86
2018-06-01T09:21:05.435Z,101582.11
2018-06-01T09:23:32.347Z,101589.20
2018-06-01T09:25:59.180Z,101585.16
2018-06-01T09:28:26.733Z,101582.23
2018-06-01T09:30:53.518Z,101580.85
2018-06-01T09:33:20.336Z,101570.00
2018-06-01T09:35:47.149Z,101568.69
2018-06-01T09:38:13.964Z,101570.59
2018-06-01T09:40:40.783Z,101565.06
2018-06-01T09:43:07.864Z,101567.86
2018-06-01T09:45:35.619Z,101561.73
2018-06-01T09:48:02.768Z,101560.77
2018-06-01T09:50:30.324Z,101558.42
2018-06-01T09:52:57.096Z,101559.02
2018-06-01T09:55:23.941Z,101560.86
2018-06-01T09:57:50.698Z,101564.77
2018-06-01T10:00:18.303Z,101566.34
2018-06-01T10:02:45.924Z,101563.33
2018-06-01T10:05:12.730Z,101574.11
2018-06-01T10:07:39.503Z,101572.59
2018-06-01T10:10:13.056Z,101571.58
2018-06-01T10:12:39.874Z,101570.06
2018-06-01T10:15:06.716Z,101565.14
2018-06-01T10:17:33.537Z,101558.41
2018-06-01T10:20:01.110Z,101558.94
2018-06-01T10:22:28.851Z,101555.27
2018-06-01T10:24:55.619Z,101553.75
2018-06-01T10:27:22.480Z,101541.52
2018-06-01T10:29:49.290Z,101541.60
2018-06-01T10:32:16.795Z,101545.42
2018-06-01T10:34:43.748Z,101547.19
2018-06-01T10:37:10.516Z,101541.87
2018-06-01T10:39:37.353Z,101546.58
2018-06-01T10:42:04.985Z,101540.48
2018-06-01T10:44:31.753Z,101534.16
2018-06-01T10:46:58.575Z,101535.55
2018-06-01T10:49:25.338Z,101521.73
2018-06-01T10:51:52.896Z,101522.94
2018-06-01T10:54:19.721Z,101513.89
2018-06-01T10:56:46.499Z,101524.13
2018-06-01T10:59:13.372Z,101523.58
2018-06-01T11:01:40.923Z,101523.59
2018-06-01T11:04:07.814Z,101523.02
2018-06-01T11:06:34.652Z,101523.12
2018-06-01T11:09:01.416Z,101525.27
2018-06-01T11:11:28.337Z,101531.02
2018-06-01T11:13:55.121Z,101526.51
2018-06-01T11:16:21.948Z,101526.19
2018-06-01T11:18:48.758Z,101522.95
2018-06-01T11:21:15.587Z,101529.10
2018-06-01T11:23:42.404Z,101527.61
2018-06-01T11:26:09.164Z,101530.78
2018-06-01T11:28:36.065Z,101535.17
2018-06-01T11:31:02.823Z,101520.25
2018-06-01T11:33:29.583Z,101534.30
2018-06-01T11:35:56.385Z,101525.41
2018-06-01T11:38:23.195Z,101526.66
2018-06-01T11:40:50.044Z,101531.16
2018-06-01T11:43:16.818Z,101520.17
2018-06-01T11:45:49.489Z,101512.43
2018-06-01T11:48:16.268Z,101519.68
2018-06-01T11:50:43.191Z,101513.52
2018-06-01T11:53:10.750Z,101510.16
2018-06-01T11:55:37.517Z,101511.13
2018-06-01T11:58:04.337Z,101517.58
2018-06-01T12:00:31.208Z,101519.05
2018-06-01T12:02:58.031Z,101514.47
2018-06-01T12:05:25.580Z,101510.91
2018-06-01T12:07:52.400Z,101502.66
2018-06-01T12:10:19.177Z,101506.91
2018-06-01T12:12:45.959Z,101497.70
2018-06-01T12:15:13.583Z,101488.73
2018-06-01T12:17:40.485Z,101489.62
2018-06-01T12:20:07.250Z,101488.82
2018-06-01T12:22:34.758Z,101490.62
2018-06-01T12:25:02.462Z,101493.56
2018-06-01T12:27:29.231Z,101502.81
2018-06-01T12:29:56.301Z,101506.34
2018-06-01T12:32:23.162Z,101492.13
2018-06-01T12:34:49.936Z,101502.61
2018-06-01T12:37:16.746Z,101510.59
2018-06-01T12:39:44.266Z,101510.16
2018-06-01T12:42:11.898Z,101531.19
2018-06-01T12:44:38.722Z,101535.66
2018-06-01T12:47:06.220Z,101539.19
2018-06-01T12:49:33.028Z,101539.74
2018-06-01T12:52:00.536Z,101538.73
2018-06-01T12:54:28.160Z,101531.48
2018-06-01T12:56:55.680Z,101526.66
2018-06-01T12:59:22.491Z,101526.70
2018-06-01T13:01:49.413Z,101522.84
2018-06-01T13:04:16.246Z,101520.32
2018-06-01T13:06:43.055Z,101511.37
2018-06-01T13:09:09.869Z,101512.59
2018-06-01T13:11:36.698Z,101512.73
2018-06-01T13:14:03.549Z,101516.18
2018-06-01T13:16:31.090Z,101524.72
2018-06-01T13:18:57.956Z,101530.55
2018-06-01T13:21:24.774Z,101530.00
2018-06-01T13:23:51.752Z,101521.06
2018-06-01T13:26:19.273Z,101517.20
2018-06-01T13:28:46.123Z,101521.13
2018-06-01T13:31:13.007Z,101513.59
2018-06-01T13:33:39.844Z,101505.41
2018-06-01T13:36:06.632Z,101497.37
2018-06-01T13:38:34.204Z,101502.34
2018-06-01T13:41:01.741Z,101500.78
2018-06-01T13:43:28.577Z,101500.42
2018-06-01T13:45:55.503Z,101504.83
2018-06-01T13:48:22.324Z,101502.86
2018-06-01T13:50:49.340Z,101504.56
2018-06-01T13:53:16.171Z,101504.13
2018-06-01T13:55:43.070Z,101520.47
2018-06-01T13:58:10.578Z,101523.27
2018-06-01T14:00:37.392Z,101531.11
2018-06-01T14:03:04.313Z,101530.48
2018-06-01T14:05:31.834Z,101527.20
2018-06-01T14:07:58.744Z,101523.95
2018-06-01T14:10:25.517Z,101514.42
2018-06-01T14:12:52.297Z,101507.05
2018-06-01T14:15:19.147Z,101507.19
2018-06-01T14:17:45.950Z,101497.34
2018-06-01T14:20:13.028Z,101510.77
2018-06-01T14:22:39.811Z,101518.23
2018-06-01T14:25:06.839Z,101522.27
2018-06-01T14:27:33.658Z,101519.88
2018-06-01T14:30:00.444Z,101513.52
2018-06-01T14:32:27.316Z,101511.37
2018-06-01T14:34:54.087Z,101517.78
2018-06-01T14:37:20.913Z,101517.39
2018-06-01T14:39:48.468Z,101514.14
2018-06-01T14:42:16.170Z,101513.77
2018-06-01T14:44:43.000Z,101514.91
2018-06-01T14:47:09.794Z,101513.72
2018-06-01T14:49:36.633Z,101515.52
2018-06-01T14:52:03.461Z,101517.98
2018-06-01T14:54:30.275Z,101504.50
2018-06-01T14:56:57.116Z,101510.38
2018-06-01T14:59:23.996Z,101501.77
2018-06-01T15:01:50.795Z,101503.37
2018-06-01T15:04:17.666Z,101503.51
2018-06-01T15:06:44.461Z,101496.25
2018-06-01T15:09:11.291Z,101494.92
2018-06-01T15:11:38.132Z,101496.80
2018-06-01T15:14:04.956Z,101500.40
2018-06-01T15:16:31.936Z,101504.70
2018-06-01T15:18:58.708Z,101507.52
2018-06-01T15:21:25.552Z,101501.65
2018-06-01T15:23:53.188Z,101508.40
2018-06-01T15:26:19.976Z,101509.25
2018-06-01T15:28:46.760Z,101511.59
2018-06-01T15:31:13.588Z,101514.18
2018-06-01T15:33:41.156Z,101518.86
2018-06-01T15:36:07.951Z,101518.27
2018-06-01T15:38:34.794Z,101525.59
2018-06-01T15:41:01.631Z,101524.84
2018-06-01T15:43:28.389Z,101530.75
2018-06-01T15:45:55.284Z,101539.00
2018-06-01T15:48:22.376Z,101542.31
2018-06-01T15:50:49.204Z,101543.50
2018-06-01T15:53:16.724Z,101559.03
2018-06-01T15:55:43.534Z,101554.44
2018-06-01T15:58:10.520Z,101552.30
2018-06-01T16:00:37.304Z,101555.17
2018-06-01T16:03:04.328Z,101550.75
2018-06-01T16:05:31.167Z,101556.06
2018-06-01T16:07:57.960Z,101559.37
2018-06-01T16:10:24.846Z,101551.36
2018-06-01T16:12:51.646Z,101555.63
2018-06-01T16:15:18.440Z,101553.36
2018-06-01T16:17:45.259Z,101555.94
2018-06-01T16:20:12.036Z,101552.20
2018-06-01T16:22:38.877Z,101555.72
2018-06-01T16:25:05.964Z,101548.27
2018-06-01T16:27:32.739Z,101542.13
2018-06-01T16:29:59.512Z,101531.77
2018-06-01T16:32:27.515Z,101534.19
2018-06-01T16:34:54.356Z,101532.77
2018-06-01T16:37:21.314Z,101533.27
2018-06-01T16:39:48.113Z,101532.83
2018-06-01T16:42:14.907Z,101541.56
2018-06-01T16:44:41.730Z,101545.72
2018-06-01T16:47:08.573Z,101546.33
2018-06-01T16:49:35.438Z,101552.14
2018-06-01T16:52:02.235Z,101550.31
2018-06-01T16:54:29.015Z,101553.42
2018-06-01T16:56:55.840Z,101556.20
2018-06-01T16:59:22.677Z,101545.58
2018-06-01T17:01:50.410Z,101547.64
2018-06-01T17:04:17.368Z,101548.48
2018-06-01T17:06:44.252Z,101552.23
2018-06-01T17:09:11.145Z,101564.73
2018-06-01T17:11:38.005Z,101560.08
2018-06-01T17:14:04.788Z,101568.73
2018-06-01T17:16:31.729Z,101562.66
2018-06-01T17:18:58.521Z,101566.16
2018-06-01T17:21:25.324Z,101576.48
2018-06-01T17:23:52.228Z,101573.16
2018-06-01T17:26:19.018Z,101575.23
2018-06-01T17:28:45.803Z,101574.70
2018-06-01T17:31:12.640Z,101561.91
2018-06-01T17:33:39.426Z,101557.47
2018-06-01T17:36:06.272Z,101550.20
2018-06-01T17:38:33.276Z,101547.98
2018-06-01T17:41:00.068Z,101544.14
2018-06-01T17:43:26.852Z,101544.42
2018-06-01T17:45:53.900Z,101546.05
2018-06-01T17:48:20.836Z,101542.45
2018-06-01T17:50:47.616Z,101544.75
2018-06-01T17:53:14.448Z,101552.70
2018-06-01T17:55:41.348Z,101550.90
2018-06-01T17:58:08.139Z,101550.25
2018-06-01T18:00:35.102Z,101550.81
2018-06-01T18:03:02.636Z,101549.64
2018-06-01T18:05:29.420Z,101555.05
2018-06-01T18:07:57.248Z,101562.44
2018-06-01T18:10:24.027Z,101563.95
2018-06-01T18:12:50.914Z,101562.66
2018-06-01T18:15:17.713Z,101567.72
2018-06-01T18:17:45.291Z,101562.66
2018-06-01T18:20:12.476Z,101562.66
2018-06-01T18:22:39.303Z,101560.62
2018-06-01T18:25:06.164Z,101556.58
2018-06-01T18:27:32.974Z,101561.06
2018-06-01T18:29:59.768Z,101555.30
2018-06-01T18:32:26.585Z,101560.91
2018-06-01T18:34:53.752Z,101561.38
2018-06-01T18:37:21.874Z,101572.13
2018-06-01T18:39:49.499Z,101579.83
2018-06-01T18:42:16.336Z,101578.24
2018-06-01T18:44:43.131Z,101582.86
2018-06-01T18:47:09.899Z,101593.05
2018-06-01T18:49:37.595Z,101589.40
2018-06-01T18:52:04.428Z,101596.19
2018-06-01T18:54:31.394Z,101604.58
2018-06-01T18:56:58.200Z,101598.88
2018-06-01T18:59:25.332Z,101590.97
2018-06-01T19:01:52.531Z,101590.75
2018-06-01T19:04:19.324Z,101587.50
2018-06-01T19:06:46.128Z,101594.12
2018-06-01T19:09:13.038Z,101585.86
2018-06-01T19:11:39.755Z,101594.16
2018-06-01T19:14:07.108Z,101599.92
2018-06-01T19:16:33.892Z,101594.56
2018-06-01T19:19:00.688Z,101589.33
2018-06-01T19:21:28.384Z,101588.79
2018-06-01T19:23:55.164Z,101592.11
2018-06-01T19:26:22.037Z,101596.54
2018-06-01T19:28:48.805Z,101593.77
2018-06-01T19:31:15.833Z,101600.42
2018-06-01T19:33:42.604Z,101610.42
2018-06-01T19:36:09.680Z,101604.31
2018-06-01T19:38:36.744Z,101604.40
2018-06-01T19:41:03.548Z,101608.47
2018-06-01T19:43:30.619Z,101601.80
2018-06-01T19:45:57.456Z,101604.32
2018-06-01T19:48:24.224Z,101599.00
2018-06-01T19:50:51.100Z,101608.95
2018-06-01T19:53:17.944Z,101600.38
2018-06-01T19:55:44.725Z,101604.40
2018-06-01T19:58:11.544Z,101600.52
2018-06-01T20:00:38.369Z,101600.39
2018-06-01T20:03:05.187Z,101604.88
2018-06-01T20:05:32.758Z,101597.05
2018-06-01T20:08:00.282Z,101595.87
2018-06-01T20:10:27.115Z,101595.95
2018-06-01T20:12:53.890Z,101603.58
2018-06-01T20:15:20.785Z,101605.49
2018-06-01T20:17:47.612Z,101604.30
2018-06-01T20:20:14.718Z,101602.60
2018-06-01T20:22:41.581Z,101602.01
2018-06-01T20:25:08.342Z,101606.97
2018-06-01T20:27:35.167Z,101609.41
2018-06-01T20:30:01.983Z,101613.22
2018-06-01T20:32:28.747Z,101611.30
2018-06-01T20:34:55.516Z,101626.24
2018-06-01T20:37:22.390Z,101628.45
2018-06-01T20:39:49.952Z,101635.89
2018-06-01T20:42:16.775Z,101636.05
2018-06-01T20:44:43.542Z,101632.05
2018-06-01T20:47:10.368Z,101630.24
2018-06-01T20:49:37.160Z,101620.53
2018-06-01T20:52:04.039Z,101608.75
2018-06-01T20:54:30.858Z,101608.75
2018-06-01T20:56:58.387Z,101615.66
2018-06-01T20:59:25.203Z,101610.66
2018-06-01T21:01:51.995Z,101607.72
2018-06-01T21:04:18.819Z,101604.81
2018-06-01T21:06:45.628Z,101598.59
2018-06-01T21:09:12.406Z,101599.75
2018-06-01T21:11:39.525Z,101604.43
2018-06-01T21:14:06.298Z,101607.33
2018-06-01T21:16:33.137Z,101612.18
2018-06-01T21:18:59.953Z,101611.58
2018-06-01T21:21:26.799Z,101617.65
2018-06-01T21:23:54.264Z,101618.44
2018-06-01T21:26:21.087Z,101613.87
2018-06-01T21:28:47.952Z,101610.94
2018-06-01T21:31:14.740Z,101611.20
2018-06-01T21:33:41.559Z,101612.49
2018-06-01T21:36:08.428Z,101610.91
2018-06-01T21:38:35.247Z,101601.41
2018-06-01T21:41:02.079Z,101610.09
2018-06-01T21:43:28.907Z,101607.27
2018-06-01T21:45:55.684Z,101597.58
2018-06-01T21:48:22.467Z,101601.14
2018-06-01T21:50:50.121Z,101603.45
2018-06-01T21:53:16.970Z,101601.96
2018-06-01T21:55:44.520Z,101606.05
2018-06-01T21:58:12.053Z,101605.00
2018-06-01T22:00:38.896Z,101612.23
2018-06-01T22:03:05.929Z,101612.25
2018-06-01T22:05:33.492Z,101606.64
2018-06-01T22:08:00.280Z,101599.64
2018-06-01T22:10:27.899Z,101595.14
2018-06-01T22:12:54.675Z,101598.88
2018-06-01T22:15:21.496Z,101604.88
2018-06-01T22:17:48.494Z,101614.16
2018-06-01T22:20:15.285Z,101613.61
2018-06-01T22:22:42.077Z,101610.93
2018-06-01T22:25:08.955Z,101615.23
2018-06-01T22:27:35.712Z,101616.00
2018-06-01T22:30:03.393Z,101605.89
2018-06-01T22:32:30.226Z,101610.08
2018-06-01T22:34:57.057Z,101603.78
2018-06-01T22:37:24.159Z,101604.56
2018-06-01T22:39:51.716Z,101600.37
2018-06-01T22:42:18.557Z,101594.44
2018-06-01T22:44:46.112Z,101601.42
2018-06-01T22:47:13.632Z,101597.18
2018-06-01T22:49:40.407Z,101592.97
2018-06-01T22:52:07.320Z,101590.40
2018-06-01T22:54:34.920Z,101597.48
2018-06-01T22:57:02.476Z,101594.23
2018-06-01T22:59:29.252Z,101591.59
2018-06-01T23:01:56.040Z,101601.45
2018-06-01T23:04:22.859Z,101598.15
2018-06-01T23:06:49.756Z,101593.70
2018-06-01T23:09:17.318Z,101586.98
2018-06-01T23:11:44.814Z,101586.09
2018-06-01T23:14:11.651Z,101584.23
2018-06-01T23:16:38.489Z,101586.16
2018-06-01T23:19:05.315Z,101582.20
2018-06-01T23:21:32.828Z,101584.98
2018-06-01T23:23:59.651Z,101577.70
2018-06-01T23:26:26.463Z,101582.46
2018-06-01T23:28:53.272Z,101582.85
2018-06-01T23:31:20.098Z,101591.48
2018-06-01T23:33:46.918Z,101585.65
2018-06-01T23:36:13.932Z,101586.07
2018-06-01T23:38:41.505Z,101593.37
2018-06-01T23:41:09.083Z,101594.59
2018-06-01T23:43:35.923Z,101593.85
2018-06-01T23:46:02.692Z,101596.61
2018-06-01T23:48:29.508Z,101610.86
2018-06-01T23:50:56.302Z,101607.06
2018-06-01T23:53:23.124Z,101609.10
2018-06-01T23:55:50.715Z,101607.44
2018-06-01T23:58:17.558Z,101598.78
